Angier, NC (27501)

3:21 AM EST on February 09, 2016 (GMT -0500)
Tram Rd | | Change Station
CLOSE
Current Station
Personal Weather Station
Location: Fuquay Varina, NC
Elevation: 315 ft
Nearby Weather Stations

Elev 315 ft 35.55 °N, 78.75 °W | Updated 4 seconds ago

Overcast
Overcast
38.3 °F
Feels Like 38 °F
N
0.0
Wind Variable Wind from South
Gusts 1.6 mph

Today
High -- | Low -- °F
--% Chance of Precip.
Yesterday
High -- | Low -- °F
Precip. -- in
Pressure 29.61 in
Visibility 7.0 miles
Clouds Mostly Cloudy 6500 ft
Overcast 10000 ft
Windchill 38 °F
Dew Point 38 °F
Humidity 99%
Rainfall 0.00 in
Snow Depth Not available.
7:08 AM 5:50 PM
New Moon, 1% visible
METAR KHRJ 090755Z AUTO 00000KT 7SM BKN065 OVC100 03/03 A2961 RMK AO2 T00330033
Pressure 29.61 in
Visibility 7.0 miles
Clouds Mostly Cloudy 6500 ft
Overcast 10000 ft
Windchill 38 °F
Dew Point 38 °F
Humidity 99%
Rainfall 0.00 in
Snow Depth Not available.
7:08 AM 5:50 PM
New Moon, 1% visible
METAR KHRJ 090755Z AUTO 00000KT 7SM BKN065 OVC100 03/03 A2961 RMK AO2 T00330033

10-Day Weather Forecast

Almanac

Astronomy

Feb. 09, 2016 Rise Set
Actual Time
Civil Twilight
Nautical Twilight
Astronomical Twilight
Moon
Length of Visible Light
Length of Day
Tomorrow will be .
, % of the Moon is Illuminated

Today's Extremes

State Highs State Lows

Community

WunderPhotos

Upload Photos

1,891,571 photos uploaded!

WunderBlog® & News

Nearby

Air Quality

  Air Quality AQ Index Pollutant
Not available.

Snow Depth

Station Depth Elevation

Earthquake Activity

City Distance Mag. Time & Date
Minimum magnitude displayed is 2.5.

Coastal Water Temperatures

Place Temperature

Stations

Nearby Weather Stations

Station Location Temp. Windchill Dew Point Humidity Wind Precip. Elev Updated Type
                   

Watches & Warnings

There are currently no watches in effect.